sensor_id;sensor_type;location;lat;lon;timestamp;pressure;altitude;pressure_sealevel;temperature;humidity
21431;BME280;10876;49.038;10.608;2023-04-21T00:01:50;98471.41;;;7.21;100.00
21431;BME280;10876;49.038;10.608;2023-04-21T00:04:19;98470.38;;;7.17;100.00
21431;BME280;10876;49.038;10.608;2023-04-21T00:06:46;98467.16;;;7.15;100.00
21431;BME280;10876;49.038;10.608;2023-04-21T00:09:15;98470.69;;;7.16;100.00
21431;BME280;10876;49.038;10.608;2023-04-21T00:11:44;98465.50;;;7.14;100.00
21431;BME280;10876;49.038;10.608;2023-04-21T00:14:11;98462.59;;;7.30;100.00
21431;BME280;10876;49.038;10.608;2023-04-21T00:16:38;98466.03;;;7.16;100.00
21431;BME280;10876;49.038;10.608;2023-04-21T00:19:05;98460.00;;;7.19;100.00
21431;BME280;10876;49.038;10.608;2023-04-21T00:21:33;98454.91;;;7.32;100.00
21431;BME280;10876;49.038;10.608;2023-04-21T00:24:00;98451.31;;;7.17;100.00
21431;BME280;10876;49.038;10.608;2023-04-21T00:26:27;98458.97;;;7.15;100.00
21431;BME280;10876;49.038;10.608;2023-04-21T00:28:56;98461.19;;;7.13;100.00
21431;BME280;10876;49.038;10.608;2023-04-21T00:31:23;98462.25;;;7.12;100.00
21431;BME280;10876;49.038;10.608;2023-04-21T00:33:50;98459.31;;;7.09;100.00
21431;BME280;10876;49.038;10.608;2023-04-21T00:36:18;98465.56;;;7.09;100.00
21431;BME280;10876;49.038;10.608;2023-04-21T00:38:45;98471.84;;;7.10;100.00
21431;BME280;10876;49.038;10.608;2023-04-21T00:41:12;98495.31;;;7.06;100.00
21431;BME280;10876;49.038;10.608;2023-04-21T00:44:01;98489.59;;;7.07;100.00
21431;BME280;10876;49.038;10.608;2023-04-21T00:46:29;98487.16;;;7.06;100.00
21431;BME280;10876;49.038;10.608;2023-04-21T00:48:56;98487.94;;;7.06;100.00
21431;BME280;10876;49.038;10.608;2023-04-21T00:51:23;98498.19;;;6.95;100.00
21431;BME280;10876;49.038;10.608;2023-04-21T00:53:53;98501.78;;;6.91;100.00
21431;BME280;10876;49.038;10.608;2023-04-21T00:56:21;98500.75;;;6.87;100.00
21431;BME280;10876;49.038;10.608;2023-04-21T00:58:49;98489.63;;;6.83;100.00
21431;BME280;10876;49.038;10.608;2023-04-21T01:01:18;98496.00;;;6.73;100.00
21431;BME280;10876;49.038;10.608;2023-04-21T01:03:45;98491.75;;;6.67;100.00
21431;BME280;10876;49.038;10.608;2023-04-21T01:06:12;98500.53;;;6.59;100.00
21431;BME280;10876;49.038;10.608;2023-04-21T01:08:39;98496.25;;;6.53;100.00
21431;BME280;10876;49.038;10.608;2023-04-21T01:11:09;98506.66;;;6.46;100.00
21431;BME280;10876;49.038;10.608;2023-04-21T01:13:37;98510.00;;;6.38;100.00
21431;BME280;10876;49.038;10.608;2023-04-21T01:16:04;98510.38;;;6.31;100.00
21431;BME280;10876;49.038;10.608;2023-04-21T01:18:33;98510.94;;;6.28;100.00
21431;BME280;10876;49.038;10.608;2023-04-21T01:21:01;98502.84;;;6.23;100.00
21431;BME280;10876;49.038;10.608;2023-04-21T01:23:30;98517.31;;;6.18;100.00
21431;BME280;10876;49.038;10.608;2023-04-21T01:25:57;98512.41;;;6.15;100.00
21431;BME280;10876;49.038;10.608;2023-04-21T01:28:25;98505.94;;;6.11;100.00
21431;BME280;10876;49.038;10.608;2023-04-21T01:30:52;98511.94;;;6.08;100.00
21431;BME280;10876;49.038;10.608;2023-04-21T01:33:19;98509.84;;;6.00;100.00
21431;BME280;10876;49.038;10.608;2023-04-21T01:35:47;98512.34;;;5.91;100.00
21431;BME280;10876;49.038;10.608;2023-04-21T01:38:14;98518.03;;;5.95;100.00
21431;BME280;10876;49.038;10.608;2023-04-21T01:40:47;98520.72;;;6.00;100.00
21431;BME280;10876;49.038;10.608;2023-04-21T01:43:17;98521.78;;;6.04;100.00
21431;BME280;10876;49.038;10.608;2023-04-21T01:45:44;98518.31;;;5.98;100.00
21431;BME280;10876;49.038;10.608;2023-04-21T01:48:12;98516.97;;;5.91;100.00
21431;BME280;10876;49.038;10.608;2023-04-21T01:50:39;98519.72;;;5.85;100.00
21431;BME280;10876;49.038;10.608;2023-04-21T01:53:06;98501.59;;;5.81;100.00
21431;BME280;10876;49.038;10.608;2023-04-21T01:55:33;98512.69;;;5.84;100.00
21431;BME280;10876;49.038;10.608;2023-04-21T01:58:02;98520.81;;;5.90;100.00
21431;BME280;10876;49.038;10.608;2023-04-21T02:00:29;98520.81;;;5.90;100.00
21431;BME280;10876;49.038;10.608;2023-04-21T02:02:56;98516.44;;;5.94;100.00
21431;BME280;10876;49.038;10.608;2023-04-21T02:05:24;98517.25;;;5.94;100.00
21431;BME280;10876;49.038;10.608;2023-04-21T02:07:51;98518.03;;;5.95;100.00
21431;BME280;10876;49.038;10.608;2023-04-21T02:10:18;98524.59;;;5.88;100.00
21431;BME280;10876;49.038;10.608;2023-04-21T02:12:45;98534.91;;;5.92;100.00
21431;BME280;10876;49.038;10.608;2023-04-21T02:15:14;98526.50;;;5.93;100.00
21431;BME280;10876;49.038;10.608;2023-04-21T02:17:41;98531.63;;;5.95;100.00
21431;BME280;10876;49.038;10.608;2023-04-21T02:20:10;98540.84;;;5.99;100.00
21431;BME280;10876;49.038;10.608;2023-04-21T02:22:38;98535.44;;;5.99;100.00
21431;BME280;10876;49.038;10.608;2023-04-21T02:25:06;98536.50;;;5.98;100.00
21431;BME280;10876;49.038;10.608;2023-04-21T02:27:33;98547.91;;;6.00;100.00
21431;BME280;10876;49.038;10.608;2023-04-21T02:30:00;98539.78;;;5.95;100.00
21431;BME280;10876;49.038;10.608;2023-04-21T02:32:28;98544.41;;;5.94;100.00
21431;BME280;10876;49.038;10.608;2023-04-21T02:34:56;98541.44;;;5.96;100.00
21431;BME280;10876;49.038;10.608;2023-04-21T02:37:23;98546.88;;;5.96;100.00
21431;BME280;10876;49.038;10.608;2023-04-21T02:39:51;98544.41;;;5.94;100.00
21431;BME280;10876;49.038;10.608;2023-04-21T02:42:18;98548.78;;;5.95;100.00
21431;BME280;10876;49.038;10.608;2023-04-21T02:44:45;98543.63;;;5.88;100.00
21431;BME280;10876;49.038;10.608;2023-04-21T02:47:14;98543.34;;;5.90;100.00
21431;BME280;10876;49.038;10.608;2023-04-21T02:49:43;98550.66;;;5.95;100.00
21431;BME280;10876;49.038;10.608;2023-04-21T02:52:10;98555.53;;;5.98;100.00
21431;BME280;10876;49.038;10.608;2023-04-21T02:54:37;98552.31;;;5.96;100.00
21431;BME280;10876;49.038;10.608;2023-04-21T02:57:04;98548.25;;;5.93;100.00
21431;BME280;10876;49.038;10.608;2023-04-21T02:59:31;98564.22;;;6.00;100.00
21431;BME280;10876;49.038;10.608;2023-04-21T03:01:58;98574.28;;;5.99;100.00
21431;BME280;10876;49.038;10.608;2023-04-21T03:04:25;98584.34;;;5.99;100.00
21431;BME280;10876;49.038;10.608;2023-04-21T03:06:54;98578.91;;;5.99;100.00
21431;BME280;10876;49.038;10.608;2023-04-21T03:09:21;98582.13;;;6.01;100.00
21431;BME280;10876;49.038;10.608;2023-04-21T03:11:48;98584.34;;;5.99;100.00
21431;BME280;10876;49.038;10.608;2023-04-21T03:14:14;98586.50;;;6.02;100.00
21431;BME280;10876;49.038;10.608;2023-04-21T03:16:41;98589.50;;;6.00;100.00
21431;BME280;10876;49.038;10.608;2023-04-21T03:19:08;98586.25;;;5.98;100.00
21431;BME280;10876;49.038;10.608;2023-04-21T03:21:36;98572.41;;;5.95;100.00
21431;BME280;10876;49.038;10.608;2023-04-21T03:24:06;98569.97;;;5.98;100.00
21431;BME280;10876;49.038;10.608;2023-04-21T03:26:33;98570.78;;;5.94;100.00
21431;BME280;10876;49.038;10.608;2023-04-21T03:29:00;98565.91;;;5.91;100.00
21431;BME280;10876;49.038;10.608;2023-04-21T03:31:27;98559.13;;;5.93;100.00
21431;BME280;10876;49.038;10.608;2023-04-21T03:33:54;98551.78;;;5.88;100.00
21431;BME280;10876;49.038;10.608;2023-04-21T03:36:21;98549.59;;;5.91;100.00
21431;BME280;10876;49.038;10.608;2023-04-21T03:38:48;98534.44;;;5.84;100.00
21431;BME280;10876;49.038;10.608;2023-04-21T03:41:17;98553.94;;;5.86;100.00
21431;BME280;10876;49.038;10.608;2023-04-21T03:44:14;98581.13;;;5.86;100.00
21431;BME280;10876;49.038;10.608;2023-04-21T03:46:41;98593.66;;;5.87;100.00
21431;BME280;10876;49.038;10.608;2023-04-21T05:58:33;98741.38;;;6.57;100.00
21431;BME280;10876;49.038;10.608;2023-04-21T06:01:00;98737.88;;;6.51;100.00
21431;BME280;10876;49.038;10.608;2023-04-21T06:03:29;98738.88;;;6.60;100.00
21431;BME280;10876;49.038;10.608;2023-04-21T06:05:56;98728.72;;;6.71;100.00
21431;BME280;10876;49.038;10.608;2023-04-21T06:08:24;98716.25;;;6.65;100.00
21431;BME280;10876;49.038;10.608;2023-04-21T06:10:51;98716.59;;;6.58;100.00
21431;BME280;10876;49.038;10.608;2023-04-21T06:13:17;98719.06;;;6.84;100.00
21431;BME280;10876;49.038;10.608;2023-04-21T06:15:46;98735.47;;;7.08;100.00
21431;BME280;10876;49.038;10.608;2023-04-21T06:18:13;98738.81;;;6.99;100.00
21431;BME280;10876;49.038;10.608;2023-04-21T06:20:40;98731.88;;;7.12;100.00
21431;BME280;10876;49.038;10.608;2023-04-21T06:23:07;98729.09;;;7.17;100.00
21431;BME280;10876;49.038;10.608;2023-04-21T06:25:35;98724.09;;;7.30;100.00
21431;BME280;10876;49.038;10.608;2023-04-21T06:28:17;98711.50;;;7.34;100.00
21431;BME280;10876;49.038;10.608;2023-04-21T06:30:46;98711.50;;;7.34;100.00
21431;BME280;10876;49.038;10.608;2023-04-21T06:33:13;98700.03;;;7.37;100.00
21431;BME280;10876;49.038;10.608;2023-04-21T06:35:40;98681.34;;;7.49;100.00
21431;BME280;10876;49.038;10.608;2023-04-21T06:38:07;98675.34;;;7.71;100.00
21431;BME280;10876;49.038;10.608;2023-04-21T06:40:34;98663.69;;;7.65;100.00
21431;BME280;10876;49.038;10.608;2023-04-21T06:43:01;98669.47;;;7.83;100.00
21431;BME280;10876;49.038;10.608;2023-04-21T06:45:28;98666.59;;;7.93;100.00
21431;BME280;10876;49.038;10.608;2023-04-21T06:47:57;98647.66;;;7.83;100.00
21431;BME280;10876;49.038;10.608;2023-04-21T06:50:24;98649.06;;;7.99;100.00
21431;BME280;10876;49.038;10.608;2023-04-21T06:52:50;98626.78;;;8.11;100.00
21431;BME280;10876;49.038;10.608;2023-04-21T06:55:18;98625.38;;;8.13;100.00
21431;BME280;10876;49.038;10.608;2023-04-21T06:57:44;98609.00;;;8.13;100.00
21431;BME280;10876;49.038;10.608;2023-04-21T07:00:12;98602.97;;;8.17;100.00
21431;BME280;10876;49.038;10.608;2023-04-21T07:02:39;98590.16;;;7.98;100.00
21431;BME280;10876;49.038;10.608;2023-04-21T07:05:08;98579.94;;;8.23;100.00
21431;BME280;10876;49.038;10.608;2023-04-21T07:07:35;98560.16;;;8.31;100.00
21431;BME280;10876;49.038;10.608;2023-04-21T07:10:03;98553.16;;;8.57;100.00
21431;BME280;10876;49.038;10.608;2023-04-21T07:12:30;98548.50;;;8.86;100.00
21431;BME280;10876;49.038;10.608;2023-04-21T07:14:57;98531.31;;;8.57;100.00
21431;BME280;10876;49.038;10.608;2023-04-21T07:17:24;98533.13;;;8.90;100.00
21431;BME280;10876;49.038;10.608;2023-04-21T07:19:51;98516.97;;;8.66;100.00
21431;BME280;10876;49.038;10.608;2023-04-21T07:22:19;98506.66;;;8.90;100.00
21431;BME280;10876;49.038;10.608;2023-04-21T07:24:46;98510.97;;;8.91;100.00
21431;BME280;10876;49.038;10.608;2023-04-21T07:27:13;98498.72;;;9.02;100.00
21431;BME280;10876;49.038;10.608;2023-04-21T07:29:40;98487.13;;;9.33;100.00
21431;BME280;10876;49.038;10.608;2023-04-21T07:32:07;98503.28;;;9.43;100.00
21431;BME280;10876;49.038;10.608;2023-04-21T07:34:34;98487.34;;;9.23;100.00
21431;BME280;10876;49.038;10.608;2023-04-21T07:37:01;98448.72;;;9.16;100.00
21431;BME280;10876;49.038;10.608;2023-04-21T07:39:30;98418.63;;;8.93;100.00
21431;BME280;10876;49.038;10.608;2023-04-21T07:41:57;98420.16;;;9.22;100.00
21431;BME280;10876;49.038;10.608;2023-04-21T07:44:23;98412.84;;;9.31;100.00
21431;BME280;10876;49.038;10.608;2023-04-21T07:46:50;98407.56;;;9.35;100.00
21431;BME280;10876;49.038;10.608;2023-04-21T07:49:17;98395.47;;;9.27;100.00
21431;BME280;10876;49.038;10.608;2023-04-21T07:51:44;98382.97;;;8.98;100.00
21431;BME280;10876;49.038;10.608;2023-04-21T07:54:12;98365.03;;;8.84;100.00
21431;BME280;10876;49.038;10.608;2023-04-21T07:56:40;98360.91;;;9.09;100.00
21431;BME280;10876;49.038;10.608;2023-04-21T07:59:07;98345.38;;;9.18;100.00
21431;BME280;10876;49.038;10.608;2023-04-21T08:01:34;98347.72;;;9.56;100.00
21431;BME280;10876;49.038;10.608;2023-04-21T08:04:01;98330.19;;;9.57;100.00
21431;BME280;10876;49.038;10.608;2023-04-21T08:06:28;98332.63;;;9.67;100.00
21431;BME280;10876;49.038;10.608;2023-04-21T08:08:55;98326.81;;;9.91;100.00
21431;BME280;10876;49.038;10.608;2023-04-21T08:11:21;98329.09;;;10.06;100.00
21431;BME280;10876;49.038;10.608;2023-04-21T08:13:52;98324.91;;;10.66;100.00
21431;BME280;10876;49.038;10.608;2023-04-21T08:16:19;98310.25;;;10.79;100.00
21431;BME280;10876;49.038;10.608;2023-04-21T08:18:46;98326.78;;;11.44;100.00
21431;BME280;10876;49.038;10.608;2023-04-21T08:21:13;98311.69;;;11.67;100.00
21431;BME280;10876;49.038;10.608;2023-04-21T08:23:40;98286.38;;;11.70;100.00
21431;BME280;10876;49.038;10.608;2023-04-21T08:26:08;98272.28;;;11.81;100.00
21431;BME280;10876;49.038;10.608;2023-04-21T08:28:35;98266.69;;;12.07;100.00
21431;BME280;10876;49.038;10.608;2023-04-21T08:31:03;98240.63;;;11.83;100.00
21431;BME280;10876;49.038;10.608;2023-04-21T08:33:30;98244.31;;;11.96;100.00
21431;BME280;10876;49.038;10.608;2023-04-21T08:35:57;98291.00;;;11.87;100.00
21431;BME280;10876;49.038;10.608;2023-04-21T08:38:24;98304.78;;;12.08;100.00
21431;BME280;10876;49.038;10.608;2023-04-21T08:40:52;98293.97;;;12.33;100.00
21431;BME280;10876;49.038;10.608;2023-04-21T08:43:20;98295.88;;;12.11;100.00
21431;BME280;10876;49.038;10.608;2023-04-21T08:45:47;98296.75;;;12.75;100.00
21431;BME280;10876;49.038;10.608;2023-04-21T08:48:16;98294.56;;;12.68;100.00
21431;BME280;10876;49.038;10.608;2023-04-21T08:50:47;98306.25;;;12.98;100.00
21431;BME280;10876;49.038;10.608;2023-04-21T08:53:15;98329.50;;;13.01;100.00
21431;BME280;10876;49.038;10.608;2023-04-21T08:55:43;98331.38;;;12.46;100.00
21431;BME280;10876;49.038;10.608;2023-04-21T08:58:10;98327.03;;;12.87;100.00
21431;BME280;10876;49.038;10.608;2023-04-21T09:00:38;98307.88;;;12.99;100.00
21431;BME280;10876;49.038;10.608;2023-04-21T09:03:06;98302.78;;;13.56;100.00
21431;BME280;10876;49.038;10.608;2023-04-21T09:05:34;98307.63;;;13.59;100.00
21431;BME280;10876;49.038;10.608;2023-04-21T09:08:09;98307.06;;;13.65;100.00
21431;BME280;10876;49.038;10.608;2023-04-21T09:10:42;98295.63;;;14.00;100.00
21431;BME280;10876;49.038;10.608;2023-04-21T09:13:11;98295.72;;;13.79;100.00
21431;BME280;10876;49.038;10.608;2023-04-21T09:15:38;98284.19;;;13.40;100.00
21431;BME280;10876;49.038;10.608;2023-04-21T09:18:10;98272.25;;;13.36;100.00
21431;BME280;10876;49.038;10.608;2023-04-21T09:20:40;98266.22;;;13.67;100.00
21431;BME280;10876;49.038;10.608;2023-04-21T09:23:08;98240.25;;;14.42;100.00
21431;BME280;10876;49.038;10.608;2023-04-21T09:25:37;98196.66;;;15.48;100.00
21431;BME280;10876;49.038;10.608;2023-04-21T09:28:06;98192.72;;;15.01;100.00
21431;BME280;10876;49.038;10.608;2023-04-21T09:30:34;98196.50;;;14.81;100.00
21431;BME280;10876;49.038;10.608;2023-04-21T09:33:02;98168.63;;;15.30;100.00
21431;BME280;10876;49.038;10.608;2023-04-21T09:35:31;98172.47;;;15.57;100.00
21431;BME280;10876;49.038;10.608;2023-04-21T09:37:59;98191.41;;;15.27;100.00
21431;BME280;10876;49.038;10.608;2023-04-21T09:40:28;98192.50;;;15.22;100.00
21431;BME280;10876;49.038;10.608;2023-04-21T09:42:55;98207.44;;;14.77;100.00
21431;BME280;10876;49.038;10.608;2023-04-21T09:45:25;98219.47;;;14.45;100.00
21431;BME280;10876;49.038;10.608;2023-04-21T09:47:55;98232.97;;;14.62;100.00
21431;BME280;10876;49.038;10.608;2023-04-21T09:50:23;98242.03;;;15.03;100.00
21431;BME280;10876;49.038;10.608;2023-04-21T09:52:52;98251.03;;;14.87;100.00
21431;BME280;10876;49.038;10.608;2023-04-21T09:55:23;98258.00;;;14.69;100.00
21431;BME280;10876;49.038;10.608;2023-04-21T09:57:51;98264.94;;;14.63;100.00
21431;BME280;10876;49.038;10.608;2023-04-21T10:00:24;98282.44;;;14.06;100.00
21431;BME280;10876;49.038;10.608;2023-04-21T10:02:53;98290.22;;;14.04;100.00
21431;BME280;10876;49.038;10.608;2023-04-21T10:05:21;98297.00;;;13.94;100.00
21431;BME280;10876;49.038;10.608;2023-04-21T10:07:51;98288.63;;;14.03;100.00
21431;BME280;10876;49.038;10.608;2023-04-21T10:10:23;98304.59;;;14.86;100.00
21431;BME280;10876;49.038;10.608;2023-04-21T10:12:52;98299.50;;;15.89;100.00
21431;BME280;10876;49.038;10.608;2023-04-21T10:15:29;98323.19;;;15.74;100.00
21431;BME280;10876;49.038;10.608;2023-04-21T10:18:12;98333.28;;;16.14;100.00
21431;BME280;10876;49.038;10.608;2023-04-21T10:20:54;98358.84;;;15.95;100.00
21431;BME280;10876;49.038;10.608;2023-04-21T10:23:29;98370.72;;;15.67;100.00
21431;BME280;10876;49.038;10.608;2023-04-21T10:26:08;98387.50;;;15.74;100.00
21431;BME280;10876;49.038;10.608;2023-04-21T10:28:46;98406.53;;;15.92;100.00
21431;BME280;10876;49.038;10.608;2023-04-21T10:31:30;98417.16;;;16.21;100.00
21431;BME280;10876;49.038;10.608;2023-04-21T10:34:18;98414.31;;;16.50;100.00
21431;BME280;10876;49.038;10.608;2023-04-21T10:37:15;98421.44;;;16.35;100.00
21431;BME280;10876;49.038;10.608;2023-04-21T10:39:54;98428.31;;;16.57;100.00
21431;BME280;10876;49.038;10.608;2023-04-21T10:42:34;98443.53;;;16.03;100.00
21431;BME280;10876;49.038;10.608;2023-04-21T10:45:09;98438.75;;;16.32;100.00
21431;BME280;10876;49.038;10.608;2023-04-21T10:47:46;98429.03;;;16.85;100.00
21431;BME280;10876;49.038;10.608;2023-04-21T10:50:18;98434.22;;;17.06;100.00
21431;BME280;10876;49.038;10.608;2023-04-21T10:52:52;98435.50;;;16.61;100.00
21431;BME280;10876;49.038;10.608;2023-04-21T10:55:19;98433.00;;;16.88;100.00
21431;BME280;10876;49.038;10.608;2023-04-21T10:57:48;98433.53;;;16.94;100.00
21431;BME280;10876;49.038;10.608;2023-04-21T11:00:17;98432.59;;;17.41;100.00
21431;BME280;10876;49.038;10.608;2023-04-21T11:02:52;98435.41;;;17.25;100.00
21431;BME280;10876;49.038;10.608;2023-04-21T11:05:26;98432.97;;;17.59;100.00
21431;BME280;10876;49.038;10.608;2023-04-21T11:08:04;98422.47;;;17.87;100.00
21431;BME280;10876;49.038;10.608;2023-04-21T11:10:41;98431.31;;;18.16;100.00
21431;BME280;10876;49.038;10.608;2023-04-21T11:13:09;98413.94;;;17.96;100.00
21431;BME280;10876;49.038;10.608;2023-04-21T11:15:36;98416.19;;;17.90;100.00
21431;BME280;10876;49.038;10.608;2023-04-21T11:18:04;98406.06;;;16.85;100.00
21431;BME280;10876;49.038;10.608;2023-04-21T11:20:31;98430.47;;;17.53;100.00
21431;BME280;10876;49.038;10.608;2023-04-21T11:22:58;98425.34;;;18.14;100.00
21431;BME280;10876;49.038;10.608;2023-04-21T11:25:25;98397.84;;;18.28;100.00
21431;BME280;10876;49.038;10.608;2023-04-21T11:27:53;98396.78;;;17.71;100.00
21431;BME280;10876;49.038;10.608;2023-04-21T11:30:29;98394.09;;;18.17;100.00
21431;BME280;10876;49.038;10.608;2023-04-21T11:32:57;98373.69;;;18.52;100.00
21431;BME280;10876;49.038;10.608;2023-04-21T11:35:25;98381.94;;;18.48;100.00
21431;BME280;10876;49.038;10.608;2023-04-21T11:37:54;98372.91;;;17.24;100.00
21431;BME280;10876;49.038;10.608;2023-04-21T11:40:21;98371.81;;;17.87;100.00
21431;BME280;10876;49.038;10.608;2023-04-21T11:42:48;98361.69;;;17.55;100.00
21431;BME280;10876;49.038;10.608;2023-04-21T11:45:18;98356.84;;;17.91;100.00
21431;BME280;10876;49.038;10.608;2023-04-21T11:47:46;98339.66;;;17.82;100.00
21431;BME280;10876;49.038;10.608;2023-04-21T11:50:28;98340.72;;;17.77;100.00
21431;BME280;10876;49.038;10.608;2023-04-21T11:52:56;98325.97;;;18.16;100.00
21431;BME280;10876;49.038;10.608;2023-04-21T11:55:23;98329.13;;;17.91;100.00
21431;BME280;10876;49.038;10.608;2023-04-21T11:57:50;98317.97;;;18.11;100.00
21431;BME280;10876;49.038;10.608;2023-04-21T12:00:18;98327.06;;;18.61;100.00
21431;BME280;10876;49.038;10.608;2023-04-21T12:02:54;98318.13;;;19.01;100.00
21431;BME280;10876;49.038;10.608;2023-04-21T12:05:21;98317.03;;;19.09;100.00
21431;BME280;10876;49.038;10.608;2023-04-21T12:07:48;98320.25;;;18.81;100.00
21431;BME280;10876;49.038;10.608;2023-04-21T12:10:17;98319.06;;;18.82;100.00
21431;BME280;10876;49.038;10.608;2023-04-21T12:12:44;98303.25;;;18.60;100.00
21431;BME280;10876;49.038;10.608;2023-04-21T12:15:16;98303.59;;;18.81;100.00
21431;BME280;10876;49.038;10.608;2023-04-21T12:17:44;98302.13;;;18.34;100.00
21431;BME280;10876;49.038;10.608;2023-04-21T12:20:15;98304.22;;;18.18;100.00
21431;BME280;10876;49.038;10.608;2023-04-21T12:22:42;98306.78;;;18.30;100.00
21431;BME280;10876;49.038;10.608;2023-04-21T12:25:09;98299.22;;;18.54;100.00
21431;BME280;10876;49.038;10.608;2023-04-21T12:27:36;98307.31;;;18.66;100.00
21431;BME280;10876;49.038;10.608;2023-04-21T12:30:04;98285.00;;;18.29;100.00
21431;BME280;10876;49.038;10.608;2023-04-21T12:32:31;98284.38;;;18.16;100.00
21431;BME280;10876;49.038;10.608;2023-04-21T12:34:58;98296.44;;;18.54;100.00
21431;BME280;10876;49.038;10.608;2023-04-21T12:37:28;98298.25;;;18.69;100.00
21431;BME280;10876;49.038;10.608;2023-04-21T12:39:54;98280.41;;;18.70;100.00
21431;BME280;10876;49.038;10.608;2023-04-21T12:42:21;98300.06;;;18.58;100.00
21431;BME280;10876;49.038;10.608;2023-04-21T12:44:48;98291.94;;;18.45;100.00
21431;BME280;10876;49.038;10.608;2023-04-21T12:47:15;98283.50;;;18.65;100.00
21431;BME280;10876;49.038;10.608;2023-04-21T12:49:42;98282.63;;;18.57;100.00
21431;BME280;10876;49.038;10.608;2023-04-21T12:52:09;98278.81;;;18.69;100.00
21431;BME280;10876;49.038;10.608;2023-04-21T12:54:38;98281.28;;;18.74;100.00
21431;BME280;10876;49.038;10.608;2023-04-21T12:57:05;98271.56;;;18.61;100.00
21431;BME280;10876;49.038;10.608;2023-04-21T12:59:32;98264.06;;;18.61;100.00
21431;BME280;10876;49.038;10.608;2023-04-21T13:01:59;98261.00;;;18.40;100.00
21431;BME280;10876;49.038;10.608;2023-04-21T13:04:26;98265.72;;;18.66;100.00
21431;BME280;10876;49.038;10.608;2023-04-21T13:06:53;98261.78;;;18.71;100.00
21431;BME280;10876;49.038;10.608;2023-04-21T13:09:20;98259.09;;;18.74;100.00
21431;BME280;10876;49.038;10.608;2023-04-21T13:11:48;98252.13;;;18.87;100.00
21431;BME280;10876;49.038;10.608;2023-04-21T13:14:16;98259.78;;;18.98;100.00
21431;BME280;10876;49.038;10.608;2023-04-21T13:16:44;98261.88;;;19.08;100.00
21431;BME280;10876;49.038;10.608;2023-04-21T13:19:11;98259.81;;;19.35;100.00
21431;BME280;10876;49.038;10.608;2023-04-21T13:21:38;98274.78;;;19.23;100.00
21431;BME280;10876;49.038;10.608;2023-04-21T13:24:05;98275.72;;;18.74;100.00
21431;BME280;10876;49.038;10.608;2023-04-21T13:26:32;98272.81;;;18.94;100.00
21431;BME280;10876;49.038;10.608;2023-04-21T13:29:01;98259.19;;;18.81;100.00
21431;BME280;10876;49.038;10.608;2023-04-21T13:31:28;98255.34;;;18.89;100.00
21431;BME280;10876;49.038;10.608;2023-04-21T13:33:58;98263.16;;;18.80;100.00
21431;BME280;10876;49.038;10.608;2023-04-21T13:36:25;98258.75;;;19.09;100.00
21431;BME280;10876;49.038;10.608;2023-04-21T13:38:52;98258.78;;;19.13;100.00
21431;BME280;10876;49.038;10.608;2023-04-21T13:41:20;98269.09;;;19.12;100.00
21431;BME280;10876;49.038;10.608;2023-04-21T13:43:47;98267.88;;;18.80;100.00
21431;BME280;10876;49.038;10.608;2023-04-21T13:46:17;98236.66;;;18.60;100.00
21431;BME280;10876;49.038;10.608;2023-04-21T13:48:45;98224.94;;;18.70;100.00
21431;BME280;10876;49.038;10.608;2023-04-21T13:51:12;98233.03;;;18.82;100.00
21431;BME280;10876;49.038;10.608;2023-04-21T13:53:39;98227.28;;;18.68;100.00
21431;BME280;10876;49.038;10.608;2023-04-21T13:56:06;98227.25;;;18.95;100.00
21431;BME280;10876;49.038;10.608;2023-04-21T13:58:34;98215.09;;;19.06;100.00
21431;BME280;10876;49.038;10.608;2023-04-21T14:01:01;98200.38;;;18.72;100.00
21431;BME280;10876;49.038;10.608;2023-04-21T14:03:30;98195.16;;;18.67;100.00
21431;BME280;10876;49.038;10.608;2023-04-21T14:05:56;98193.34;;;18.78;100.00
21431;BME280;10876;49.038;10.608;2023-04-21T14:08:23;98203.59;;;18.74;100.00
21431;BME280;10876;49.038;10.608;2023-04-21T14:10:50;98201.66;;;18.78;100.00
21431;BME280;10876;49.038;10.608;2023-04-21T14:13:17;98197.97;;;19.01;100.00
21431;BME280;10876;49.038;10.608;2023-04-21T14:15:44;98198.69;;;18.64;100.00
21431;BME280;10876;49.038;10.608;2023-04-21T14:18:11;98204.47;;;18.82;100.00
21431;BME280;10876;49.038;10.608;2023-04-21T14:20:40;98205.69;;;18.24;100.00
21431;BME280;10876;49.038;10.608;2023-04-21T14:23:07;98206.56;;;18.01;100.00
21431;BME280;10876;49.038;10.608;2023-04-21T14:25:34;98189.88;;;18.55;100.00
21431;BME280;10876;49.038;10.608;2023-04-21T14:28:01;98191.03;;;18.84;100.00
21431;BME280;10876;49.038;10.608;2023-04-21T14:30:31;98200.09;;;18.77;100.00
21431;BME280;10876;49.038;10.608;2023-04-21T14:32:59;98186.00;;;18.63;100.00
21431;BME280;10876;49.038;10.608;2023-04-21T14:35:26;98196.69;;;18.61;100.00
21431;BME280;10876;49.038;10.608;2023-04-21T14:37:56;98198.69;;;18.64;100.00
21431;BME280;10876;49.038;10.608;2023-04-21T14:40:23;98186.00;;;18.63;100.00
21431;BME280;10876;49.038;10.608;2023-04-21T14:42:50;98194.44;;;19.04;100.00
21431;BME280;10876;49.038;10.608;2023-04-21T14:45:17;98186.38;;;18.92;100.00
21431;BME280;10876;49.038;10.608;2023-04-21T14:47:44;98183.97;;;18.60;100.00
21431;BME280;10876;49.038;10.608;2023-04-21T14:50:11;98167.06;;;18.68;100.00
21431;BME280;10876;49.038;10.608;2023-04-21T14:52:38;98179.28;;;18.98;100.00
21431;BME280;10876;49.038;10.608;2023-04-21T14:55:07;98172.09;;;18.93;100.00
21431;BME280;10876;49.038;10.608;2023-04-21T14:57:34;98183.22;;;18.97;100.00
21431;BME280;10876;49.038;10.608;2023-04-21T15:00:01;98164.31;;;19.06;100.00
21431;BME280;10876;49.038;10.608;2023-04-21T15:02:29;98165.00;;;18.96;100.00